Time;durP1;ratioP1;P1;durP2;ratioP2;P2;SDS_P1;SDS_P2;PMS_P1;PMS_P2;Temp;Humidity;BMP_temperature;BMP_pressure;BME280_temperature;BME280_humidity;BME280_pressure;Samples;Min_cycle;Max_cycle;Signal;HPM_P1;HPM_P2
2022/07/02 00:00:59;;;;;;;;;4.00;4.00;;;;;19.25;47.45;101743.38;5020590;28;45473;-71
2022/07/02 00:03:34;;;;;;;;;3.00;3.00;;;;;19.29;47.57;101746.78;5020285;28;45459;-71
2022/07/02 00:06:02;;;;;;;;;3.75;3.75;;;;;19.20;47.58;101735.50;5030990;28;45442;-71
2022/07/02 00:08:28;;;;;;;;;3.75;3.75;;;;;19.22;47.39;101744.41;5031230;28;45315;-71
2022/07/02 00:10:56;;;;;;;;;4.50;4.50;;;;;19.24;47.67;101739.81;5026681;28;45242;-71
2022/07/02 00:13:23;;;;;;;;;7.00;4.50;;;;;19.21;47.68;101741.78;5033036;28;45485;-71
2022/07/02 00:15:49;;;;;;;;;3.75;3.75;;;;;19.22;47.64;101746.25;5037272;28;46220;-71
2022/07/02 00:18:16;;;;;;;;;4.25;3.00;;;;;19.17;48.02;101737.50;5032897;28;45288;-71
2022/07/02 00:20:45;;;;;;;;;5.00;5.00;;;;;19.10;47.87;101730.66;5027084;28;45266;-71
2022/07/02 00:23:11;;;;;;;;;2.75;2.75;;;;;19.04;47.91;101719.22;5039970;28;45457;-71
2022/07/02 00:25:46;;;;;;;;;5.00;4.25;;;;;19.15;48.06;101750.25;5031840;28;46157;-71
2022/07/02 00:28:15;;;;;;;;;4.50;4.50;;;;;19.12;48.16;101750.41;5020119;28;45554;-71
2022/07/02 00:30:46;;;;;;;;;4.00;4.00;;;;;19.06;48.37;101740.75;5035450;28;45467;-72
2022/07/02 00:33:16;;;;;;;;;3.00;3.00;;;;;19.03;47.95;101741.81;5035519;28;45402;-71
2022/07/02 00:35:42;;;;;;;;;3.00;3.00;;;;;19.05;48.56;101753.41;5023188;28;45378;-71
2022/07/02 00:38:08;;;;;;;;;2.75;2.75;;;;;19.02;48.02;101745.44;5019285;28;46503;-71
2022/07/02 00:40:34;;;;;;;;;4.75;3.75;;;;;18.98;48.64;101730.34;5033023;28;45403;-71
2022/07/02 00:42:59;;;;;;;;;4.00;4.00;;;;;18.98;48.66;101732.19;5026648;28;45213;-72
2022/07/02 00:45:26;;;;;;;;;2.00;2.00;;;;;18.97;48.61;101731.28;5034058;28;46086;-72
2022/07/02 00:47:54;;;;;;;;;3.25;2.75;;;;;18.96;48.44;101747.59;5019894;28;45173;-71
2022/07/02 00:50:24;;;;;;;;;4.00;4.00;;;;;18.92;48.81;101732.50;5026915;28;45318;-71
2022/07/02 00:52:50;;;;;;;;;1.50;1.25;;;;;18.89;48.80;101730.81;5028901;28;45565;-71
2022/07/02 00:55:16;;;;;;;;;3.00;3.00;;;;;18.91;48.92;101731.63;5022893;28;46709;-72
2022/07/02 00:57:48;;;;;;;;;3.00;3.00;;;;;18.91;49.09;101733.44;5029099;28;45538;-71
2022/07/02 01:00:18;;;;;;;;;2.75;2.75;;;;;18.88;49.49;101729.94;5019840;28;45379;-71
2022/07/02 01:02:44;;;;;;;;;3.00;3.00;;;;;18.90;49.05;101734.41;5019509;28;45364;-71
2022/07/02 01:05:13;;;;;;;;;2.75;2.75;;;;;18.84;49.32;101719.34;5022023;28;45394;-71
2022/07/02 01:07:42;;;;;;;;;6.00;5.00;;;;;18.83;49.29;101725.72;5024948;28;45636;-71
2022/07/02 01:10:19;;;;;;;;;5.00;4.00;;;;;18.87;49.24;101730.88;5032720;28;45218;-71
2022/07/02 01:12:46;;;;;;;;;2.75;2.75;;;;;18.78;49.03;101716.94;5017938;28;45410;-71
2022/07/02 01:15:12;;;;;;;;;2.50;2.50;;;;;18.84;49.40;101727.47;5021956;28;46217;-71
2022/07/02 01:17:37;;;;;;;;;4.75;4.75;;;;;18.81;49.28;101728.47;5022362;28;45604;-71
2022/07/02 01:20:04;;;;;;;;;5.25;5.00;;;;;18.73;49.25;101718.97;5019697;28;45444;-71
2022/07/02 01:22:37;;;;;;;;;6.00;5.00;;;;;18.75;49.72;101727.91;5019297;28;45348;-71
2022/07/02 01:25:03;;;;;;;;;4.50;4.00;;;;;18.76;49.41;101735.06;5022331;28;45415;-71
2022/07/02 01:27:29;;;;;;;;;5.50;4.50;;;;;18.69;49.40;101731.78;5026204;28;45467;-71
2022/07/02 01:29:54;;;;;;;;;5.00;5.00;;;;;18.64;49.40;101717.63;5023133;28;45300;-71
2022/07/02 01:32:21;;;;;;;;;4.00;4.00;;;;;18.70;49.43;101742.53;5022703;28;45584;-72
2022/07/02 01:34:49;;;;;;;;;3.00;3.00;;;;;18.67;50.11;101739.13;5022701;28;46236;-71
2022/07/02 01:37:18;;;;;;;;;9.00;5.75;;;;;18.61;50.09;101732.19;5026503;28;45503;-71
2022/07/02 01:39:45;;;;;;;;;4.75;4.75;;;;;18.65;50.03;101739.19;5041726;28;45469;-71
2022/07/02 01:42:11;;;;;;;;;4.50;4.50;;;;;18.64;49.93;101745.56;5038037;28;45225;-71
2022/07/02 01:44:38;;;;;;;;;5.00;4.00;;;;;18.60;50.14;101745.81;5042538;28;46305;-71
2022/07/02 01:47:05;;;;;;;;;4.75;3.50;;;;;18.51;49.97;101736.31;5024792;28;45494;-71
2022/07/02 01:49:31;;;;;;;;;4.50;4.50;;;;;18.59;49.82;101749.44;5027823;28;45335;-71
2022/07/02 01:51:56;;;;;;;;;2.00;2.00;;;;;18.49;49.73;101727.38;5044719;28;45376;-71
2022/07/02 01:54:21;;;;;;;;;4.25;4.00;;;;;18.48;49.93;101731.94;5052661;28;45598;-71
2022/07/02 01:56:47;;;;;;;;;4.75;4.75;;;;;18.55;49.85;101740.63;5037309;28;45430;-71
2022/07/02 01:59:13;;;;;;;;;4.00;4.00;;;;;18.45;49.85;101723.09;5022585;28;45319;-71
2022/07/02 02:01:42;;;;;;;;;3.75;3.00;;;;;18.50;49.90;101730.03;5022227;28;45284;-71
2022/07/02 02:04:08;;;;;;;;;5.00;4.00;;;;;18.47;50.29;101721.19;5042279;28;45428;-71
2022/07/02 02:06:33;;;;;;;;;4.25;3.00;;;;;18.41;50.34;101711.56;5038725;28;45500;-71
2022/07/02 02:08:59;;;;;;;;;5.00;3.50;;;;;18.45;50.13;101731.22;5042962;28;45329;-71
2022/07/02 02:11:25;;;;;;;;;3.00;3.00;;;;;18.38;50.00;101718.97;5025103;28;45315;-71
2022/07/02 02:13:51;;;;;;;;;2.50;2.25;;;;;18.46;50.37;101731.13;5022120;28;45438;-71
2022/07/02 02:16:16;;;;;;;;;4.00;4.00;;;;;18.37;50.32;101718.06;5026321;28;45316;-71
2022/07/02 02:18:42;;;;;;;;;6.50;3.00;;;;;18.41;50.77;101729.59;5042347;28;45940;-71
2022/07/02 02:21:07;;;;;;;;;5.50;4.25;;;;;18.36;50.43;101719.03;5041626;28;45821;-71
2022/07/02 02:23:33;;;;;;;;;4.75;4.75;;;;;18.39;50.93;101723.41;5021808;28;46193;-71
2022/07/02 02:25:58;;;;;;;;;3.50;3.50;;;;;18.34;51.01;101715.50;5025665;28;45220;-71
2022/07/02 02:28:23;;;;;;;;;2.75;2.50;;;;;18.27;51.03;101709.53;5022136;28;45315;-71
2022/07/02 02:30:49;;;;;;;;;3.00;3.00;;;;;18.26;51.05;101707.81;5021913;28;45498;-71
2022/07/02 02:33:14;;;;;;;;;6.00;5.25;;;;;18.31;51.26;101721.09;5021739;28;45306;-71
2022/07/02 02:35:40;;;;;;;;;4.50;4.50;;;;;18.20;51.27;101708.09;5022505;28;45307;-71
2022/07/02 02:38:05;;;;;;;;;7.00;5.00;;;;;18.17;51.18;101705.53;5036061;28;45454;-71
2022/07/02 02:40:31;;;;;;;;;4.00;4.00;;;;;18.24;51.01;101719.63;5034678;28;45410;-71
2022/07/02 02:42:56;;;;;;;;;3.75;3.75;;;;;18.19;51.58;101717.13;5028120;28;46011;-71
2022/07/02 02:45:21;;;;;;;;;2.75;2.75;;;;;18.23;51.25;101717.91;5041168;28;45292;-71
2022/07/02 02:47:47;;;;;;;;;5.75;5.75;;;;;18.20;51.83;101715.34;5032814;28;45218;-71
2022/07/02 02:50:12;;;;;;;;;6.00;5.00;;;;;18.18;51.49;101720.81;5027399;28;45564;-71
2022/07/02 02:52:37;;;;;;;;;4.50;4.50;;;;;18.20;51.29;101715.34;5032422;28;46175;-71
2022/07/02 02:55:03;;;;;;;;;4.75;4.50;;;;;18.18;51.34;101710.00;5021306;28;45306;-71
2022/07/02 02:57:29;;;;;;;;;5.75;4.75;;;;;18.18;51.49;101711.84;5049860;28;45384;-72
2022/07/02 02:59:54;;;;;;;;;5.00;4.00;;;;;18.18;51.48;101719.94;5043001;28;45515;-71
2022/07/02 03:02:19;;;;;;;;;7.50;6.00;;;;;18.11;51.88;101708.56;5021109;28;46520;-71
2022/07/02 03:04:45;;;;;;;;;4.50;4.50;;;;;18.09;51.53;101708.63;5025561;28;45358;-71
2022/07/02 03:07:10;;;;;;;;;4.75;4.75;;;;;18.11;51.57;101722.94;5034388;28;45488;-71
2022/07/02 03:09:35;;;;;;;;;4.00;3.25;;;;;18.06;51.95;101710.56;5038459;28;45503;-71
2022/07/02 03:12:01;;;;;;;;;4.25;4.25;;;;;18.06;51.92;101716.88;5052281;28;46428;-71
2022/07/02 03:14:26;;;;;;;;;6.75;5.75;;;;;18.04;52.27;101710.69;5053055;28;45331;-71
2022/07/02 03:16:51;;;;;;;;;6.00;5.00;;;;;18.04;52.33;101724.19;5035057;28;45443;-71
2022/07/02 03:19:17;;;;;;;;;5.00;5.00;;;;;18.00;52.48;101727.09;5025947;28;45309;-71
2022/07/02 03:21:42;;;;;;;;;5.00;5.00;;;;;17.98;52.43;101719.06;5020944;28;45391;-71
2022/07/02 03:24:07;;;;;;;;;3.75;3.75;;;;;18.00;52.25;101729.81;5021120;28;45419;-71
2022/07/02 03:26:33;;;;;;;;;5.00;4.75;;;;;17.89;51.99;101719.50;5023311;28;45433;-71
2022/07/02 03:28:58;;;;;;;;;5.75;4.75;;;;;17.90;52.31;101718.56;5021069;28;45174;-71
2022/07/02 03:31:23;;;;;;;;;4.25;3.25;;;;;17.92;52.17;101728.31;5020901;28;47159;-71
2022/07/02 03:33:49;;;;;;;;;5.50;5.50;;;;;17.86;52.10;101720.50;5020770;28;45282;-71
2022/07/02 03:36:15;;;;;;;;;4.00;4.00;;;;;17.90;52.27;101726.66;5029254;28;45208;-71
2022/07/02 03:38:40;;;;;;;;;4.25;4.25;;;;;17.87;52.37;101721.41;5036250;28;45235;-71
2022/07/02 03:41:08;;;;;;;;;5.75;4.75;;;;;17.86;52.30;101719.59;5020471;28;46301;-71
2022/07/02 03:43:34;;;;;;;;;5.25;5.00;;;;;17.89;52.50;101730.31;5032503;28;45253;-71
2022/07/02 03:46:00;;;;;;;;;5.00;5.00;;;;;17.83;52.46;101715.25;5031060;28;45452;-71
2022/07/02 03:48:26;;;;;;;;;5.25;4.75;;;;;17.87;52.84;101724.97;5024712;28;45487;-71
2022/07/02 03:50:51;;;;;;;;;4.75;4.75;;;;;17.78;53.15;101714.59;5031693;28;47243;-71
2022/07/02 03:53:16;;;;;;;;;4.50;4.50;;;;;17.81;52.71;101718.94;5025899;28;45371;-71
2022/07/02 03:55:42;;;;;;;;;6.25;5.00;;;;;17.84;53.18;101726.91;5023922;28;45402;-71
2022/07/02 03:58:07;;;;;;;;;5.25;4.25;;;;;17.82;53.27;101724.28;5028411;28;45406;-71
2022/07/02 04:00:32;;;;;;;;;4.50;4.50;;;;;17.82;53.35;101724.28;5052538;28;45385;-71
2022/07/02 04:02:58;;;;;;;;;5.75;5.75;;;;;17.72;53.22;101707.63;5025617;28;45431;-71
2022/07/02 04:05:23;;;;;;;;;6.25;6.25;;;;;17.76;53.51;101721.91;5021400;28;45458;-71
2022/07/02 04:07:49;;;;;;;;;5.25;4.75;;;;;17.73;52.94;101720.19;5036863;28;45228;-71
2022/07/02 04:10:15;;;;;;;;;5.50;4.75;;;;;17.78;52.97;101728.97;5038882;28;46046;-71
2022/07/02 04:12:40;;;;;;;;;4.50;4.50;;;;;17.74;53.00;101724.66;5025472;28;45554;-71
2022/07/02 04:15:06;;;;;;;;;6.00;4.25;;;;;17.72;53.59;101728.38;5020477;28;45344;-71
2022/07/02 04:17:31;;;;;;;;;4.50;4.50;;;;;17.68;52.97;101722.25;5022058;28;45281;-71
2022/07/02 04:19:56;;;;;;;;;4.50;4.50;;;;;17.72;53.31;101729.22;5020219;28;46290;-71
2022/07/02 04:22:22;;;;;;;;;4.75;4.75;;;;;17.65;53.23;101719.69;5029947;28;45358;-71
2022/07/02 04:24:47;;;;;;;;;5.50;4.75;;;;;17.59;52.81;101717.25;5020657;28;45369;-71
2022/07/02 04:27:13;;;;;;;;;2.50;2.50;;;;;17.44;52.99;101701.78;5020177;28;45457;-71
2022/07/02 04:29:38;;;;;;;;;6.50;5.00;;;;;17.59;53.16;101731.66;5019950;28;45905;-71
2022/07/02 04:32:04;;;;;;;;;2.50;2.50;;;;;17.49;53.06;101718.63;5019956;28;46198;-71
2022/07/02 04:34:29;;;;;;;;;2.75;2.75;;;;;17.47;52.90;101713.31;5020164;28;45379;-71
2022/07/02 04:36:55;;;;;;;;;4.25;4.25;;;;;17.50;52.89;101732.06;5030920;28;45280;-71
2022/07/02 04:39:20;;;;;;;;;2.75;2.75;;;;;17.50;53.32;101734.75;5031937;28;45303;-71
2022/07/02 04:41:45;;;;;;;;;4.50;4.50;;;;;17.47;52.93;101734.91;5019385;28;45324;-71
2022/07/02 04:44:11;;;;;;;;;5.25;4.25;;;;;17.39;53.18;101723.56;5036842;28;45470;-71
2022/07/02 04:46:36;;;;;;;;;4.25;3.50;;;;;17.37;53.59;101717.38;5037081;28;45327;-71
2022/07/02 04:49:01;;;;;;;;;6.50;5.00;;;;;17.35;53.55;101714.75;5020390;28;45421;-71
2022/07/02 04:51:27;;;;;;;;;8.25;3.25;;;;;17.40;53.33;101733.44;5035830;28;45437;-71
2022/07/02 04:53:52;;;;;;;;;5.75;3.25;;;;;17.29;53.28;101717.72;5020749;28;45414;-71
2022/07/02 04:56:17;;;;;;;;;6.00;4.50;;;;;17.27;53.39;101708.81;5026338;28;45213;-71
2022/07/02 04:58:43;;;;;;;;;5.00;5.00;;;;;17.30;53.92;101722.16;5021528;28;47835;-71
2022/07/02 05:01:08;;;;;;;;;7.50;7.00;;;;;17.24;53.53;101719.78;5023336;28;45224;-71
2022/07/02 05:03:33;;;;;;;;;6.00;6.00;;;;;17.27;53.68;101729.53;5023237;28;45516;-71
2022/07/02 05:05:59;;;;;;;;;5.75;5.75;;;;;17.23;53.52;101726.97;5027406;28;45325;-71
2022/07/02 05:08:26;;;;;;;;;8.00;7.00;;;;;17.27;53.86;101733.09;5040537;28;45303;-71
2022/07/02 05:10:52;;;;;;;;;7.00;6.00;;;;;17.27;53.96;101734.94;5030115;28;45423;-71
2022/07/02 05:13:18;;;;;;;;;5.75;5.00;;;;;17.23;54.26;101726.09;5034916;28;45474;-71
2022/07/02 05:15:43;;;;;;;;;5.00;5.00;;;;;17.25;53.87;101729.59;5033348;28;45413;-71
2022/07/02 05:18:09;;;;;;;;;3.75;3.75;;;;;17.20;54.07;101720.84;5036282;28;45371;-71
2022/07/02 05:20:34;;;;;;;;;1.00;1.00;;;;;17.20;54.20;101719.00;5023024;28;45339;-71
2022/07/02 05:22:59;;;;;;;;;5.00;5.00;;;;;17.23;54.17;101732.34;5022711;28;46473;-71
2022/07/02 05:25:25;;;;;;;;;5.00;5.00;;;;;17.26;54.68;101730.47;5048344;28;45350;-71
2022/07/02 05:27:50;;;;;;;;;5.00;5.00;;;;;17.23;54.70;101731.50;5035849;28;45240;-71
2022/07/02 05:30:16;;;;;;;;;4.50;4.50;;;;;17.09;54.71;101710.53;5022825;28;45387;-71
2022/07/02 05:32:41;;;;;;;;;5.00;5.00;;;;;17.27;54.49;101737.63;5022906;28;45261;-71
2022/07/02 05:35:07;;;;;;;;;9.75;7.00;;;;;17.23;54.84;101728.78;5022785;28;45617;-71
2022/07/02 05:37:32;;;;;;;;;8.25;8.00;;;;;17.29;54.74;101738.44;5037532;28;45375;-71
2022/07/02 05:39:57;;;;;;;;;5.75;5.75;;;;;17.27;54.82;101735.78;5029217;28;48785;-71
2022/07/02 05:42:23;;;;;;;;;6.75;6.00;;;;;17.22;54.98;101727.03;5028083;28;45344;-71
2022/07/02 05:44:48;;;;;;;;;4.50;4.50;;;;;17.31;55.40;101733.88;5042727;28;45257;-71
2022/07/02 05:47:13;;;;;;;;;5.00;5.00;;;;;17.26;55.60;101725.97;5033928;28;45484;-71
2022/07/02 05:49:39;;;;;;;;;8.00;7.00;;;;;17.31;55.31;101734.72;5024121;28;45482;-71
2022/07/02 05:52:04;;;;;;;;;7.75;7.25;;;;;17.34;55.39;101728.28;5024490;28;45335;-71
2022/07/02 05:54:30;;;;;;;;;9.00;6.75;;;;;17.34;55.57;101728.28;5044627;28;45427;-71
2022/07/02 05:56:55;;;;;;;;;6.25;5.25;;;;;17.41;55.27;101735.19;5032940;28;45754;-71
2022/07/02 05:59:22;;;;;;;;;7.00;6.00;;;;;17.35;55.74;101719.28;5022157;28;47990;-71
2022/07/02 06:01:48;;;;;;;;;7.00;6.00;;;;;17.41;55.45;101725.25;5022330;28;45445;-71
2022/07/02 06:04:13;;;;;;;;;9.00;7.00;;;;;17.52;55.57;101737.38;5022298;28;45474;-71
2022/07/02 06:09:22;;;;;;;;;7.00;6.00;;;;;17.55;55.52;101726.47;5030044;28;45181;-71
2022/07/02 06:11:47;;;;;;;;;9.25;7.50;;;;;17.66;55.09;101737.66;5022118;28;45148;-72
2022/07/02 06:14:13;;;;;;;;;8.00;6.75;;;;;17.68;55.21;101734.88;5022070;28;45238;-71
2022/07/02 06:16:38;;;;;;;;;7.50;7.50;;;;;17.53;54.90;101704.06;5028646;28;46180;-73
2022/07/02 06:19:06;;;;;;;;;6.50;6.50;;;;;17.74;54.55;101732.75;5028747;28;45462;-72
2022/07/02 06:21:32;;;;;;;;;9.75;8.25;;;;;17.75;55.16;101729.09;5033888;28;45474;-72
2022/07/02 06:23:58;;;;;;;;;6.75;6.75;;;;;17.86;54.80;101735.81;5022177;28;45316;-72
2022/07/02 06:26:23;;;;;;;;;6.75;6.75;;;;;17.84;54.79;101735.91;5021611;28;46733;-72
2022/07/02 06:28:48;;;;;;;;;9.50;7.25;;;;;17.95;55.30;101735.44;5020357;28;51265;-72
2022/07/02 06:31:14;;;;;;;;;5.50;5.50;;;;;17.90;55.20;101715.88;5029636;28;45334;-72
2022/07/02 06:33:41;;;;;;;;;5.00;5.00;;;;;18.02;55.06;101736.88;5027402;28;45489;-72
2022/07/02 06:36:10;;;;;;;;;5.75;5.75;;;;;18.00;54.96;101719.00;5022822;28;46136;-72
2022/07/02 06:38:37;;;;;;;;;5.50;5.50;;;;;18.06;54.90;101718.69;5033123;28;45601;-72
2022/07/02 06:42:18;;;;;;;;;6.50;6.00;;;;;18.11;54.51;101719.38;5027123;28;45395;-72
2022/07/02 06:43:48;;;;;;;;;5.25;4.75;;;;;18.13;54.05;101712.91;5035286;28;45471;-72
2022/07/02 06:46:14;;;;;;;;;3.75;3.75;;;;;18.24;53.97;101725.94;5031681;28;50940;-72
2022/07/02 06:48:39;;;;;;;;;7.00;5.25;;;;;18.29;53.14;101731.09;5039614;28;45341;-73
2022/07/02 06:51:04;;;;;;;;;4.75;4.75;;;;;18.29;53.57;101720.28;5039851;28;45336;-72
2022/07/02 06:53:30;;;;;;;;;5.50;4.50;;;;;18.38;53.57;101727.94;5025137;28;45620;-72
2022/07/02 06:55:55;;;;;;;;;3.50;3.50;;;;;18.39;52.62;101720.69;5021315;28;45997;-72
2022/07/02 06:58:20;;;;;;;;;5.00;3.50;;;;;18.41;52.56;101722.38;5034124;28;45295;-72
2022/07/02 07:00:46;;;;;;;;;0.00;0.00;;;;;18.51;52.70;101728.22;5021683;28;45304;-73
2022/07/02 07:03:11;;;;;;;;;5.00;5.00;;;;;18.52;52.55;101713.72;5021215;28;45292;-73
2022/07/02 07:05:38;;;;;;;;;3.25;3.25;;;;;18.56;52.56;101712.63;5025825;28;46854;-72
2022/07/02 07:08:04;;;;;;;;;3.25;3.25;;;;;18.69;52.74;101734.50;5023909;28;45594;-72
2022/07/02 07:10:31;;;;;;;;;3.25;3.25;;;;;18.68;52.86;101719.25;5026633;28;45444;-72
2022/07/02 07:12:56;;;;;;;;;3.00;3.00;;;;;18.67;52.55;101706.66;5020967;28;45657;-72
2022/07/02 07:15:22;;;;;;;;;2.75;2.75;;;;;18.81;52.66;101720.38;5041808;28;45398;-73
2022/07/02 07:17:47;;;;;;;;;3.00;3.00;;;;;18.81;51.54;101720.38;5033250;28;45464;-72
2022/07/02 07:20:16;;;;;;;;;3.00;1.75;;;;;18.93;50.92;101724.31;5021011;28;45309;-73
2022/07/02 07:22:42;;;;;;;;;1.75;1.75;;;;;18.94;50.75;101719.75;5020188;28;45205;-73
2022/07/02 07:25:08;;;;;;;;;1.75;1.75;;;;;18.95;50.26;101708.00;5021056;28;45265;-73
2022/07/02 07:27:33;;;;;;;;;2.00;2.00;;;;;18.92;50.37;101694.63;5025044;28;45348;-72
2022/07/02 07:29:58;;;;;;;;;2.00;2.00;;;;;19.13;50.54;101715.13;5035440;28;46411;-72
2022/07/02 07:32:24;;;;;;;;;1.50;1.50;;;;;19.20;50.53;101718.41;5030319;28;45553;-72
2022/07/02 07:34:49;;;;;;;;;3.75;1.25;;;;;19.22;50.24;101711.06;5029430;28;45365;-73
2022/07/02 07:37:15;;;;;;;;;2.00;2.00;;;;;19.27;49.92;101706.28;5020793;28;45385;-72
2022/07/02 07:39:41;;;;;;;;;1.75;1.75;;;;;19.35;49.94;101714.00;5020959;28;45397;-73
2022/07/02 07:42:06;;;;;;;;;1.00;1.00;;;;;19.43;49.08;101711.75;5035487;28;45260;-72
2022/07/02 07:44:32;;;;;;;;;2.00;2.00;;;;;19.48;48.85;101716.88;5038255;28;45467;-72
2022/07/02 07:46:57;;;;;;;;;2.75;1.00;;;;;19.57;48.80;101716.41;5025087;28;45390;-73
2022/07/02 07:49:23;;;;;;;;;1.50;1.00;;;;;19.62;48.85;101709.75;5021102;28;45437;-72
2022/07/02 07:51:48;;;;;;;;;2.00;2.00;;;;;19.70;48.92;101700.34;5037150;28;45628;-72
2022/07/02 07:54:13;;;;;;;;;2.25;2.25;;;;;19.80;48.83;101705.19;5027404;28;46029;-72
2022/07/02 07:56:41;;;;;;;;;2.00;2.00;;;;;19.83;48.85;101698.75;5020347;28;45319;-72
2022/07/02 07:59:06;;;;;;;;;2.00;2.00;;;;;19.97;48.33;101704.25;5020746;28;45248;-72
2022/07/02 08:01:32;;;;;;;;;1.00;1.00;;;;;19.94;48.02;101688.16;5020410;28;45227;-73
2022/07/02 08:03:57;;;;;;;;;2.00;1.00;;;;;20.12;47.85;101698.91;5025200;28;45494;-72
2022/07/02 08:06:22;;;;;;;;;1.00;1.00;;;;;20.21;47.89;101698.38;5032212;28;45216;-73
2022/07/02 08:08:48;;;;;;;;;1.75;1.00;;;;;20.19;47.80;101678.63;5038280;28;45940;-73
2022/07/02 08:11:13;;;;;;;;;1.00;1.00;;;;;20.38;47.44;101694.69;5024202;28;45406;-72
2022/07/02 08:13:38;;;;;;;;;1.00;1.00;;;;;20.39;48.17;101684.72;5022261;28;45402;-72
2022/07/02 08:16:04;;;;;;;;;0.00;0.00;;;;;20.55;47.56;101694.56;5022414;28;45335;-73
2022/07/02 08:18:29;;;;;;;;;1.00;1.00;;;;;20.62;46.71;101697.78;5031744;28;45294;-72
2022/07/02 08:20:55;;;;;;;;;1.00;1.00;;;;;20.69;47.01;101695.63;5024381;28;45502;-72
2022/07/02 08:23:20;;;;;;;;;0.00;0.00;;;;;20.76;45.76;101702.41;5031983;28;46525;-72
2022/07/02 08:25:45;;;;;;;;;2.00;0.25;;;;;20.77;46.54;101687.03;5048897;28;45342;-73
2022/07/02 08:28:11;;;;;;;;;3.25;1.00;;;;;20.90;45.84;101696.16;5035678;28;45423;-72
2022/07/02 08:30:36;;;;;;;;;0.75;0.75;;;;;20.97;45.63;101696.66;5037797;28;45405;-73
2022/07/02 08:33:02;;;;;;;;;1.25;1.25;;;;;20.98;45.07;101676.69;5024290;28;46340;-72
2022/07/02 08:35:28;;;;;;;;;0.75;0.75;;;;;21.09;45.02;101687.75;5034000;28;45565;-72
2022/07/02 08:37:53;;;;;;;;;1.00;1.00;;;;;21.07;45.47;101679.72;5020413;28;45415;-73
2022/07/02 08:40:24;;;;;;;;;1.00;1.00;;;;;21.20;45.10;101684.38;5035651;28;45350;-73
2022/07/02 08:42:52;;;;;;;;;0.00;0.00;;;;;21.19;44.42;101675.34;5025785;28;46996;-73
2022/07/02 08:45:20;;;;;;;;;0.00;0.00;;;;;21.29;43.80;101672.94;5032537;28;45360;-73
2022/07/02 08:47:46;;;;;;;;;0.75;0.75;;;;;21.29;45.08;101670.22;5019373;28;45454;-72
2022/07/02 08:50:13;;;;;;;;;0.00;0.00;;;;;21.45;44.45;101683.69;5019605;28;45296;-72
2022/07/02 08:52:40;;;;;;;;;0.00;0.00;;;;;21.34;44.16;101653.66;5019833;28;45434;-73
2022/07/02 08:55:06;;;;;;;;;1.00;1.00;;;;;21.50;43.74;101664.44;5019529;28;45429;-72
2022/07/02 08:57:33;;;;;;;;;0.00;0.00;;;;;21.62;44.77;101672.66;5019851;28;45300;-73
2022/07/02 08:59:59;;;;;;;;;0.00;0.00;;;;;21.67;43.12;101672.38;5019711;28;45241;-73
2022/07/02 09:02:26;;;;;;;;;1.00;0.50;;;;;21.73;43.01;101673.81;5019437;28;45439;-73
2022/07/02 09:04:53;;;;;;;;;0.75;0.00;;;;;21.74;43.52;101671.00;5019762;28;45317;-73
2022/07/02 09:07:19;;;;;;;;;0.00;0.00;;;;;21.79;42.75;101671.56;5019892;28;45347;-73
2022/07/02 09:09:45;;;;;;;;;0.75;0.00;;;;;21.82;43.19;101670.53;5019683;28;45338;-73
2022/07/02 09:12:12;;;;;;;;;1.00;0.00;;;;;21.87;43.14;101656.59;5019297;28;45280;-74
2022/07/02 09:14:38;;;;;;;;;0.00;0.00;;;;;21.92;42.82;101670.75;5019168;28;45326;-73
2022/07/02 09:17:06;;;;;;;;;0.00;0.00;;;;;21.93;42.55;101665.22;5020132;28;45283;-73
2022/07/02 09:19:34;;;;;;;;;0.00;0.00;;;;;22.00;42.13;101669.31;5019365;28;45613;-73
2022/07/02 09:21:59;;;;;;;;;0.00;0.00;;;;;22.03;41.69;101665.50;5019387;28;45477;-73
2022/07/02 09:24:39;;;;;;;;;0.00;0.00;;;;;22.06;40.43;101661.72;5019513;28;45384;-73
2022/07/02 09:27:07;;;;;;;;;0.00;0.00;;;;;22.06;42.01;101659.00;5019455;28;45410;-73
2022/07/02 09:29:43;;;;;;;;;0.00;0.00;;;;;22.12;41.56;101664.00;5019635;28;45411;-72
2022/07/02 09:32:10;;;;;;;;;0.00;0.00;;;;;22.08;41.62;101652.47;5019273;28;46275;-73
2022/07/02 09:34:45;;;;;;;;;0.00;0.00;;;;;22.17;41.44;101661.88;5019488;28;45310;-73
2022/07/02 09:37:19;;;;;;;;;0.00;0.00;;;;;22.20;41.10;101656.22;5019414;28;45342;-73
2022/07/02 09:39:46;;;;;;;;;0.75;0.75;;;;;22.20;41.37;101650.78;5019222;28;45327;-73
2022/07/02 09:42:29;;;;;;;;;0.00;0.00;;;;;22.17;41.62;101645.56;5018977;28;46983;-73
2022/07/02 09:44:56;;;;;;;;;0.00;0.00;;;;;22.31;40.02;101642.81;5023765;28;45256;-73
2022/07/02 09:47:35;;;;;;;;;0.00;0.00;;;;;22.33;41.35;101651.72;5022697;28;45459;-73
2022/07/02 09:50:04;;;;;;;;;0.00;0.00;;;;;22.39;41.05;101656.75;5022504;28;45277;-73
2022/07/02 09:52:30;;;;;;;;;0.00;0.00;;;;;22.39;39.56;101648.59;5025020;28;45431;-73
2022/07/02 09:54:55;;;;;;;;;0.00;0.00;;;;;22.46;39.19;101656.34;5031168;28;45821;-73
2022/07/02 09:57:20;;;;;;;;;1.00;0.00;;;;;22.45;40.22;101647.28;5022377;28;47548;-73
2022/07/02 09:59:45;;;;;;;;;0.75;0.75;;;;;22.52;39.32;101651.34;5022442;28;45619;-73
2022/07/02 10:02:24;;;;;;;;;0.00;0.00;;;;;22.59;39.18;101659.97;5029192;28;45350;-73
2022/07/02 10:04:51;;;;;;;;;0.00;0.00;;;;;22.63;39.72;101645.16;5022339;28;45248;-73
2022/07/02 10:07:19;;;;;;;;;0.75;0.75;;;;;22.67;39.24;101646.72;5022740;28;45216;-73
2022/07/02 10:09:44;;;;;;;;;0.00;0.00;;;;;22.68;38.70;101636.69;5020745;28;45550;-73
2022/07/02 10:12:10;;;;;;;;;0.75;0.75;;;;;22.73;38.86;101634.53;5022001;28;48356;-73
2022/07/02 10:14:37;;;;;;;;;0.75;0.75;;;;;22.69;38.69;101622.97;5022110;28;45473;-73
2022/07/02 10:17:03;;;;;;;;;0.00;0.00;;;;;22.75;38.97;101628.00;5022563;28;45382;-73
2022/07/02 10:19:31;;;;;;;;;0.75;0.00;;;;;22.76;39.50;101624.28;5022103;28;45455;-73
2022/07/02 10:21:58;;;;;;;;;1.00;0.00;;;;;22.75;38.41;101619.84;5022161;28;45378;-73
2022/07/02 10:24:25;;;;;;;;;1.00;0.00;;;;;22.76;39.03;101609.81;5021950;28;45293;-73
2022/07/02 10:26:53;;;;;;;;;0.00;0.00;;;;;22.84;39.01;101612.88;5022069;28;45370;-73
2022/07/02 10:29:20;;;;;;;;;0.00;0.00;;;;;22.88;39.27;101619.81;5020919;28;45296;-73
2022/07/02 10:31:52;;;;;;;;;0.25;0.25;;;;;22.90;38.56;101612.44;5030139;28;45706;-73
2022/07/02 10:34:42;;;;;;;;;0.75;0.75;;;;;22.96;39.24;101613.00;5024152;28;45257;-73
2022/07/02 10:37:09;;;;;;;;;1.00;1.00;;;;;22.90;38.41;101593.38;5022258;28;45214;-73
2022/07/02 10:39:41;;;;;;;;;1.00;1.00;;;;;23.05;39.56;101617.75;5027741;28;45436;-73
2022/07/02 10:42:07;;;;;;;;;0.75;0.75;;;;;23.07;39.47;101604.94;5026085;28;45340;-73
2022/07/02 10:44:39;;;;;;;;;0.00;0.00;;;;;23.15;37.92;101598.94;5033060;28;45276;-73
2022/07/02 10:47:05;;;;;;;;;1.00;1.00;;;;;23.17;37.80;101606.03;5021836;28;45418;-73
2022/07/02 10:49:31;;;;;;;;;0.75;0.75;;;;;23.16;38.17;101595.25;5021932;28;45225;-73
2022/07/02 10:51:57;;;;;;;;;0.00;0.00;;;;;23.12;37.75;101587.31;5021294;28;45513;-73
2022/07/02 10:54:31;;;;;;;;;1.00;1.00;;;;;23.16;37.59;101598.84;5021793;28;45245;-73
2022/07/02 10:56:56;;;;;;;;;8.25;6.00;;;;;23.15;38.20;101610.69;5021097;28;45256;-73
2022/07/02 10:59:26;;;;;;;;;9.50;9.00;;;;;23.17;37.95;101591.53;5021661;28;45425;-73
2022/07/02 11:02:09;;;;;;;;;8.25;7.00;;;;;23.20;38.39;101588.59;5027357;28;46371;-73
2022/07/02 11:04:35;;;;;;;;;2.25;2.25;;;;;23.25;38.33;101592.72;5024958;28;45639;-73
2022/07/02 11:07:05;;;;;;;;;1.00;1.00;;;;;23.28;37.42;101591.63;5021669;28;45366;-73
2022/07/02 11:09:31;;;;;;;;;0.00;0.00;;;;;23.29;37.71;101590.66;5020105;28;45549;-73
2022/07/02 11:12:00;;;;;;;;;0.50;0.50;;;;;23.31;38.46;101588.69;5024296;28;48461;-73
2022/07/02 11:14:26;;;;;;;;;0.00;0.00;;;;;23.27;37.47;101581.72;5028018;28;45328;-72
2022/07/02 11:16:53;;;;;;;;;0.75;0.75;;;;;23.27;37.32;101584.44;5040364;28;45477;-73
2022/07/02 11:19:24;;;;;;;;;1.00;1.00;;;;;23.26;37.39;101583.56;5034760;28;45563;-73
2022/07/02 11:21:55;;;;;;;;;2.00;1.00;;;;;23.26;37.60;101575.41;5021097;28;46968;-74
2022/07/02 11:24:22;;;;;;;;;4.00;4.00;;;;;23.34;38.32;101583.03;5021028;28;45296;-73